createdAt,value
2022-09-07T00:00:56.380Z,56.87
2022-09-07T00:03:25.998Z,55.85
2022-09-07T00:05:54.070Z,55.68
2022-09-07T00:08:24.027Z,55.92
2022-09-07T00:10:57.261Z,55.58
2022-09-07T00:13:28.980Z,55.44
2022-09-07T00:15:58.617Z,55.51
2022-09-07T00:18:26.964Z,55.60
2022-09-07T00:21:02.389Z,56.03
2022-09-07T00:23:31.652Z,55.38
2022-09-07T00:26:03.164Z,56.35
2022-09-07T00:28:31.883Z,56.93
2022-09-07T00:31:01.441Z,56.66
2022-09-07T00:33:29.890Z,56.90
2022-09-07T00:35:59.395Z,56.66
2022-09-07T00:38:27.500Z,56.38
2022-09-07T00:40:55.686Z,56.80
2022-09-07T00:43:32.643Z,56.39
2022-09-07T00:46:02.610Z,57.21
2022-09-07T00:48:35.676Z,57.28
2022-09-07T00:51:07.859Z,58.39
2022-09-07T00:53:39.169Z,57.67
2022-09-07T00:56:07.518Z,58.70
2022-09-07T00:58:38.021Z,59.04
2022-09-07T01:01:08.479Z,59.67
2022-09-07T01:03:41.229Z,59.04
2022-09-07T01:06:16.623Z,59.30
2022-09-07T01:08:46.139Z,58.63
2022-09-07T01:11:14.520Z,58.74
2022-09-07T01:13:44.991Z,59.56
2022-09-07T01:16:26.441Z,60.16
2022-09-07T01:19:05.115Z,60.12
2022-09-07T01:21:44.862Z,60.41
2022-09-07T01:24:42.679Z,61.16
2022-09-07T01:27:52.015Z,60.86
2022-09-07T01:30:24.146Z,61.11
2022-09-07T01:33:31.679Z,61.38
2022-09-07T01:36:11.362Z,61.82
2022-09-07T01:38:43.028Z,61.74
2022-09-07T01:41:17.662Z,61.93
2022-09-07T01:43:53.537Z,61.76
2022-09-07T01:46:28.065Z,62.25
2022-09-07T01:49:01.544Z,62.09
2022-09-07T01:51:34.590Z,60.74
2022-09-07T01:54:08.990Z,61.68
2022-09-07T01:56:41.415Z,62.56
2022-09-07T01:59:15.361Z,62.17
2022-09-07T02:01:51.164Z,62.39
2022-09-07T02:04:24.279Z,62.77
2022-09-07T02:06:59.644Z,62.59
2022-09-07T02:09:33.353Z,62.45
2022-09-07T02:12:03.860Z,62.64
2022-09-07T02:14:35.440Z,63.84
2022-09-07T02:17:08.561Z,63.45
2022-09-07T02:19:42.057Z,63.80
2022-09-07T02:22:14.304Z,64.06
2022-09-07T02:24:46.431Z,63.64
2022-09-07T02:27:18.523Z,64.44
2022-09-07T02:29:46.532Z,63.92
2022-09-07T02:32:15.841Z,63.80
2022-09-07T02:34:43.761Z,63.68
2022-09-07T02:37:13.355Z,63.72
2022-09-07T02:39:41.423Z,64.57
2022-09-07T02:42:10.356Z,65.09
2022-09-07T02:44:42.045Z,65.13
2022-09-07T02:47:22.687Z,65.35
2022-09-07T02:50:07.704Z,65.93
2022-09-07T02:52:45.825Z,65.54
2022-09-07T02:55:24.002Z,66.03
2022-09-07T02:58:02.096Z,66.44
2022-09-07T03:00:35.732Z,66.26
2022-09-07T03:03:16.743Z,65.59
2022-09-07T03:05:49.997Z,66.02
2022-09-07T03:08:21.245Z,66.12
2022-09-07T03:10:50.363Z,66.54
2022-09-07T03:13:22.792Z,66.97
2022-09-07T03:15:55.525Z,66.78
2022-09-07T03:18:26.797Z,66.59
2022-09-07T03:20:54.817Z,66.96
2022-09-07T03:23:22.726Z,66.59
2022-09-07T03:25:51.078Z,66.63
2022-09-07T03:28:19.031Z,67.06
2022-09-07T03:30:47.456Z,68.13
2022-09-07T03:33:16.795Z,68.10
2022-09-07T03:35:47.249Z,67.11
2022-09-07T03:38:15.165Z,66.81
2022-09-07T03:40:43.009Z,67.43
2022-09-07T03:43:10.915Z,67.42
2022-09-07T03:45:38.867Z,68.01
2022-09-07T03:48:06.903Z,68.09
2022-09-07T03:50:34.773Z,67.67
2022-09-07T03:53:03.990Z,68.24
2022-09-07T03:55:31.852Z,68.40
2022-09-07T03:57:59.887Z,68.66
2022-09-07T04:00:27.789Z,68.09
2022-09-07T04:02:55.776Z,68.30
2022-09-07T04:05:24.104Z,68.22
2022-09-07T04:07:52.500Z,68.52
2022-09-07T04:10:21.770Z,68.73
2022-09-07T04:12:50.514Z,69.01
2022-09-07T04:15:18.399Z,69.63
2022-09-07T04:17:46.388Z,68.99
2022-09-07T04:20:14.365Z,69.29
2022-09-07T04:22:43.134Z,68.79
2022-09-07T04:25:11.004Z,69.10
2022-09-07T04:27:40.330Z,69.16
2022-09-07T04:30:09.279Z,68.82
2022-09-07T04:32:38.743Z,69.10
2022-09-07T04:35:08.092Z,69.54
2022-09-07T04:37:36.094Z,70.08
2022-09-07T04:40:04.784Z,69.79
2022-09-07T04:42:32.780Z,69.50
2022-09-07T04:45:01.995Z,70.56
2022-09-07T04:47:30.657Z,70.17
2022-09-07T04:49:58.776Z,70.25
2022-09-07T04:52:26.675Z,69.52
2022-09-07T04:54:54.578Z,70.34
2022-09-07T04:57:25.799Z,69.84
2022-09-07T04:59:53.760Z,70.38
2022-09-07T05:02:23.174Z,71.08
2022-09-07T05:04:51.129Z,71.14
2022-09-07T05:07:19.201Z,70.28
2022-09-07T05:09:48.221Z,71.66
2022-09-07T05:12:16.335Z,72.36
2022-09-07T05:14:44.397Z,71.79
2022-09-07T05:17:12.373Z,71.79
2022-09-07T05:19:41.640Z,71.43
2022-09-07T05:22:09.752Z,71.78
2022-09-07T05:24:37.887Z,71.30
2022-09-07T05:27:06.267Z,72.45
2022-09-07T05:32:21.953Z,72.01
2022-09-07T05:34:54.203Z,71.67
2022-09-07T05:37:22.198Z,71.55
2022-09-07T05:39:55.062Z,71.61
2022-09-07T05:42:23.206Z,70.78
2022-09-07T05:44:51.232Z,70.30
2022-09-07T05:47:19.303Z,69.60
2022-09-07T05:49:47.416Z,70.60
2022-09-07T05:52:17.061Z,70.41
2022-09-07T05:54:44.882Z,70.21
2022-09-07T05:57:13.301Z,69.81
2022-09-07T05:59:41.578Z,69.48
2022-09-07T06:02:14.243Z,69.52
2022-09-07T06:04:42.881Z,68.68
2022-09-07T06:07:27.444Z,68.29
2022-09-07T06:12:49.027Z,69.49
2022-09-07T06:15:17.703Z,68.95
2022-09-07T06:17:45.756Z,68.34
2022-09-07T06:20:13.864Z,68.80
2022-09-07T06:22:41.851Z,69.09
2022-09-07T06:25:11.528Z,69.05
2022-09-07T06:27:39.428Z,68.37
2022-09-07T06:30:08.463Z,68.29
2022-09-07T06:32:45.579Z,67.80
2022-09-07T06:35:14.724Z,68.52
2022-09-07T06:37:43.423Z,67.72
2022-09-07T06:40:13.399Z,67.24
2022-09-07T06:42:41.701Z,67.77
2022-09-07T06:45:11.817Z,66.98
2022-09-07T06:47:40.452Z,66.59
2022-09-07T06:50:09.754Z,67.60
2022-09-07T06:55:28.658Z,67.39
2022-09-07T06:57:57.013Z,67.12
2022-09-07T07:00:25.151Z,68.13
2022-09-07T07:02:53.239Z,67.03
2022-09-07T07:05:21.363Z,67.56
2022-09-07T07:07:49.496Z,67.97
2022-09-07T07:10:22.185Z,67.52
2022-09-07T07:12:57.512Z,66.82
2022-09-07T07:15:28.482Z,66.24
2022-09-07T07:18:02.667Z,66.75
2022-09-07T07:20:38.305Z,65.94
2022-09-07T07:23:06.968Z,66.74
2022-09-07T07:25:36.061Z,65.99
2022-09-07T07:30:56.932Z,65.99
2022-09-07T07:33:25.753Z,67.08
2022-09-07T07:35:54.137Z,66.37
2022-09-07T07:44:00.512Z,65.99
2022-09-07T07:46:32.367Z,65.28
2022-09-07T07:49:00.765Z,65.57
2022-09-07T07:51:29.299Z,64.83
2022-09-07T07:53:57.820Z,64.22
2022-09-07T07:56:26.778Z,63.60
2022-09-07T07:58:55.152Z,64.51
2022-09-07T08:01:24.622Z,64.50
2022-09-07T08:03:53.079Z,64.09
2022-09-07T08:06:22.361Z,64.71
2022-09-07T08:08:50.336Z,65.65
2022-09-07T08:11:23.084Z,65.73
2022-09-07T08:13:52.140Z,66.15
2022-09-07T08:16:20.235Z,64.45
2022-09-07T08:18:49.706Z,64.06
2022-09-07T08:21:17.762Z,64.66
2022-09-07T08:23:45.935Z,62.90
2022-09-07T08:26:14.111Z,64.12
2022-09-07T08:28:45.505Z,64.13
2022-09-07T08:31:15.445Z,64.29
2022-09-07T08:33:44.021Z,64.04
2022-09-07T08:36:14.853Z,63.86
2022-09-07T08:38:43.075Z,62.92
2022-09-07T08:41:49.433Z,62.66
2022-09-07T08:44:23.200Z,62.15
2022-09-07T08:46:56.065Z,63.26
2022-09-07T08:49:34.487Z,62.11
2022-09-07T08:52:06.680Z,61.86
2022-09-07T08:54:34.971Z,62.28
2022-09-07T08:57:21.231Z,61.43
2022-09-07T08:59:56.312Z,62.28
2022-09-07T09:02:27.988Z,62.06
2022-09-07T09:07:56.937Z,61.32
2022-09-07T09:10:36.190Z,60.68
2022-09-07T09:13:15.830Z,61.07
2022-09-07T09:15:53.413Z,59.95
2022-09-07T09:18:41.163Z,60.05
2022-09-07T09:21:14.606Z,59.89
2022-09-07T09:23:45.686Z,59.36
2022-09-07T09:26:22.548Z,59.88
2022-09-07T09:28:53.144Z,59.28
2022-09-07T09:31:25.984Z,59.43
2022-09-07T09:34:10.265Z,59.16
2022-09-07T09:36:43.735Z,58.38
2022-09-07T09:39:32.059Z,58.33
2022-09-07T09:42:15.438Z,58.86
2022-09-07T09:44:45.503Z,58.50
2022-09-07T09:47:31.227Z,58.48
2022-09-07T09:50:02.535Z,58.94
2022-09-07T09:52:43.517Z,57.84
2022-09-07T09:55:40.642Z,58.42
2022-09-07T10:01:25.427Z,57.63
2022-09-07T10:06:27.923Z,57.00
2022-09-07T10:08:59.048Z,57.08
2022-09-07T10:14:37.161Z,56.60
2022-09-07T10:17:20.262Z,56.05
2022-09-07T10:19:49.617Z,54.91
2022-09-07T10:22:32.047Z,55.70
2022-09-07T10:25:01.159Z,54.62
2022-09-07T10:27:35.230Z,54.26
2022-09-07T10:30:07.820Z,54.56
2022-09-07T10:32:55.032Z,54.67
2022-09-07T10:35:28.028Z,53.69
2022-09-07T10:38:04.886Z,54.61
2022-09-07T10:40:36.165Z,56.15
2022-09-07T10:43:22.401Z,56.31
2022-09-07T10:49:19.955Z,57.72
2022-09-07T10:52:02.560Z,56.51
2022-09-07T10:54:39.673Z,56.79
2022-09-07T10:57:39.026Z,57.39
2022-09-07T11:00:13.369Z,57.07
2022-09-07T11:03:26.399Z,56.60
2022-09-07T11:06:09.685Z,56.67
2022-09-07T11:12:02.865Z,57.10
2022-09-07T11:14:37.843Z,56.91
2022-09-07T11:17:14.990Z,57.62
2022-09-07T11:19:47.999Z,56.98
2022-09-07T11:22:22.945Z,56.80
2022-09-07T11:27:48.902Z,56.97
2022-09-07T11:30:21.941Z,56.11
2022-09-07T11:32:57.410Z,55.35
2022-09-07T11:35:35.218Z,54.87
2022-09-07T11:38:14.176Z,55.15
2022-09-07T11:40:50.633Z,54.26
2022-09-07T11:43:23.608Z,54.06
2022-09-07T11:45:55.114Z,55.39
2022-09-07T11:48:32.034Z,54.13
2022-09-07T11:51:04.502Z,53.87
2022-09-07T11:53:36.830Z,54.07
2022-09-07T11:56:11.950Z,54.45
2022-09-07T11:58:55.653Z,55.42
2022-09-07T12:01:35.096Z,55.51
2022-09-07T12:04:24.827Z,56.86
2022-09-07T12:07:17.333Z,56.24
2022-09-07T12:09:59.525Z,55.28
2022-09-07T12:12:59.153Z,56.35
2022-09-07T12:15:34.729Z,56.56
2022-09-07T12:18:17.959Z,55.86
2022-09-07T12:20:49.191Z,55.12
2022-09-07T12:23:27.252Z,54.57
2022-09-07T12:26:34.146Z,52.89
2022-09-07T12:29:19.381Z,50.77
2022-09-07T12:31:59.290Z,51.65
2022-09-07T12:34:52.492Z,53.56
2022-09-07T12:37:44.669Z,53.34
2022-09-07T12:40:49.605Z,54.03
2022-09-07T12:43:37.008Z,53.45
2022-09-07T12:46:05.353Z,54.80
2022-09-07T12:48:47.692Z,56.34
2022-09-07T12:54:26.174Z,56.29
2022-09-07T12:59:58.999Z,56.31
2022-09-07T13:02:55.006Z,56.04
2022-09-07T13:05:38.989Z,55.74
2022-09-07T13:08:21.772Z,56.16
2022-09-07T13:10:51.162Z,57.20
2022-09-07T13:17:15.520Z,57.94
2022-09-07T13:19:53.314Z,58.00
2022-09-07T13:22:56.136Z,57.90
2022-09-07T13:25:48.079Z,58.08
2022-09-07T13:28:53.008Z,59.67
2022-09-07T13:31:49.538Z,58.61
2022-09-07T13:34:39.262Z,58.23
2022-09-07T13:37:18.556Z,58.02
2022-09-07T13:39:49.603Z,59.01
2022-09-07T13:42:19.813Z,58.10
2022-09-07T13:45:00.389Z,58.14
2022-09-07T13:47:53.027Z,57.83
2022-09-07T13:50:37.362Z,57.31
2022-09-07T13:53:35.181Z,57.44
2022-09-07T13:56:16.417Z,57.36
2022-09-07T13:58:48.077Z,57.27
2022-09-07T14:01:21.517Z,56.92
2022-09-07T14:03:55.202Z,57.50
2022-09-07T14:06:32.716Z,55.72
2022-09-07T14:09:04.795Z,56.70
2022-09-07T14:11:42.212Z,56.62
2022-09-07T14:14:16.461Z,56.66
2022-09-07T14:16:48.780Z,56.70
2022-09-07T14:19:20.782Z,57.76
2022-09-07T14:22:00.290Z,58.06
2022-09-07T14:24:31.749Z,57.29
2022-09-07T14:27:00.533Z,56.53
2022-09-07T14:29:33.706Z,56.04
2022-09-07T14:32:05.037Z,56.71
2022-09-07T14:34:35.784Z,56.52
2022-09-07T14:37:12.465Z,57.05
2022-09-07T14:39:43.295Z,56.62
2022-09-07T14:42:12.876Z,56.87
2022-09-07T14:44:44.929Z,56.85
2022-09-07T14:47:29.309Z,57.52
2022-09-07T14:50:05.595Z,57.59
2022-09-07T14:52:42.352Z,57.47
2022-09-07T14:55:28.242Z,56.94
2022-09-07T14:58:22.958Z,58.00
2022-09-07T15:03:57.302Z,58.26
2022-09-07T15:09:30.773Z,58.02
2022-09-07T15:12:18.038Z,58.51
2022-09-07T15:14:47.549Z,57.17
2022-09-07T15:20:36.738Z,55.87
2022-09-07T15:23:06.719Z,54.48
2022-09-07T15:25:35.969Z,55.29
2022-09-07T15:28:05.076Z,54.74
2022-09-07T15:30:33.608Z,54.87
2022-09-07T15:33:01.898Z,56.72
2022-09-07T15:35:30.050Z,55.26
2022-09-07T15:38:02.419Z,55.78
2022-09-07T15:41:03.641Z,55.71
2022-09-07T15:43:31.374Z,55.34
2022-09-07T15:45:59.446Z,55.38
2022-09-07T15:48:27.334Z,55.35
2022-09-07T15:51:03.430Z,55.44
2022-09-07T15:56:22.701Z,56.13
2022-09-07T15:58:53.614Z,55.84
2022-09-07T16:04:14.801Z,56.92
2022-09-07T16:06:43.046Z,56.81
2022-09-07T16:09:12.323Z,56.96
2022-09-07T16:11:43.248Z,58.11
2022-09-07T16:14:12.361Z,58.99
2022-09-07T16:19:28.426Z,59.18
2022-09-07T16:21:57.503Z,58.42
2022-09-07T16:24:28.315Z,59.28
2022-09-07T16:26:56.195Z,59.92
2022-09-07T16:29:24.710Z,59.73
2022-09-07T16:34:40.884Z,60.29
2022-09-07T16:37:08.879Z,60.62
2022-09-07T16:39:40.002Z,60.89
2022-09-07T16:42:08.953Z,61.43
2022-09-07T16:44:37.063Z,61.62
2022-09-07T16:47:07.999Z,61.23
2022-09-07T16:49:36.352Z,61.37
2022-09-07T16:52:10.610Z,62.67
2022-09-07T16:54:40.291Z,62.39
2022-09-07T16:57:08.073Z,62.57
2022-09-07T16:59:35.976Z,63.60
2022-09-07T17:02:03.787Z,63.98
2022-09-07T17:04:31.923Z,64.01
2022-09-07T17:06:59.867Z,64.31
2022-09-07T17:09:28.632Z,64.58
2022-09-07T17:11:57.824Z,64.97
2022-09-07T17:14:28.967Z,65.66
2022-09-07T17:16:57.132Z,66.18
2022-09-07T17:19:32.624Z,66.71
2022-09-07T17:22:01.099Z,66.88
2022-09-07T17:24:32.231Z,67.15
2022-09-07T17:27:05.989Z,66.94
2022-09-07T17:29:37.136Z,66.90
2022-09-07T17:34:54.122Z,64.24
2022-09-07T17:37:22.523Z,62.45
2022-09-07T17:39:50.519Z,64.14
2022-09-07T17:42:20.076Z,64.01
2022-09-07T17:44:52.712Z,65.13
2022-09-07T17:47:21.012Z,66.54
2022-09-07T17:49:49.035Z,68.19
2022-09-07T17:52:17.135Z,69.93
2022-09-07T17:54:45.407Z,69.87
2022-09-07T17:57:13.240Z,70.25
2022-09-07T18:02:37.723Z,70.95
2022-09-07T18:05:07.333Z,72.02
2022-09-07T18:07:35.978Z,73.43
2022-09-07T18:10:03.873Z,73.14
2022-09-07T18:12:32.711Z,75.49
2022-09-07T18:15:02.117Z,76.92
2022-09-07T18:17:30.143Z,77.75
2022-09-07T18:19:58.121Z,77.86
2022-09-07T18:22:26.004Z,77.67
2022-09-07T18:24:54.013Z,78.76
2022-09-07T18:27:21.955Z,79.95
2022-09-07T18:29:49.868Z,82.13
2022-09-07T18:32:19.204Z,82.90
2022-09-07T18:34:50.535Z,84.43
2022-09-07T18:37:19.515Z,84.10
2022-09-07T18:39:48.651Z,85.25
2022-09-07T18:42:16.856Z,85.69
2022-09-07T18:47:35.012Z,84.20
2022-09-07T18:50:02.984Z,84.22
2022-09-07T18:55:19.996Z,84.75
2022-09-07T18:57:47.919Z,83.96
2022-09-07T19:00:16.222Z,82.96
2022-09-07T19:02:50.409Z,82.97
2022-09-07T19:08:08.406Z,83.06
2022-09-07T19:10:37.216Z,82.13
2022-09-07T19:13:07.359Z,83.41
2022-09-07T19:15:38.599Z,82.70
2022-09-07T19:18:09.001Z,82.79
2022-09-07T19:20:37.360Z,82.49
2022-09-07T19:23:06.418Z,81.72
2022-09-07T19:25:34.405Z,81.68
2022-09-07T19:28:02.390Z,81.39
2022-09-07T19:30:30.433Z,81.13
2022-09-07T19:33:02.126Z,81.43
2022-09-07T19:35:37.006Z,81.37
2022-09-07T19:38:08.961Z,81.32
2022-09-07T19:40:36.946Z,81.29
2022-09-07T19:43:05.056Z,81.32
2022-09-07T19:45:33.695Z,81.59
2022-09-07T19:48:02.035Z,81.17
2022-09-07T19:50:30.035Z,81.30
2022-09-07T19:52:59.337Z,79.67
2022-09-07T19:55:28.180Z,79.91
2022-09-07T19:57:56.202Z,79.28
2022-09-07T20:00:24.713Z,79.32
2022-09-07T20:02:54.117Z,78.53
2022-09-07T20:05:29.077Z,77.84
2022-09-07T20:07:57.083Z,77.75
2022-09-07T20:10:26.434Z,77.88
2022-09-07T20:12:54.329Z,77.72
2022-09-07T20:15:24.037Z,76.73
2022-09-07T20:17:51.856Z,76.68
2022-09-07T20:20:21.079Z,76.49
2022-09-07T20:22:48.995Z,76.54
2022-09-07T20:25:17.022Z,75.92
2022-09-07T20:27:46.341Z,75.24
2022-09-07T20:30:14.560Z,75.41
2022-09-07T20:32:42.750Z,75.68
2022-09-07T20:35:11.091Z,76.00
2022-09-07T20:37:39.154Z,75.72
2022-09-07T20:40:08.307Z,76.25
2022-09-07T20:42:36.165Z,74.91
2022-09-07T20:45:06.104Z,74.60
2022-09-07T20:47:33.994Z,74.82
2022-09-07T20:50:01.886Z,73.99
2022-09-07T20:52:32.627Z,73.62
2022-09-07T20:55:01.052Z,74.38
2022-09-07T20:57:28.840Z,72.77
2022-09-07T20:59:56.880Z,72.61
2022-09-07T21:02:26.166Z,71.58
2022-09-07T21:04:54.088Z,70.84
2022-09-07T21:07:22.002Z,70.79
2022-09-07T21:09:50.308Z,71.91
2022-09-07T21:12:18.354Z,69.91
2022-09-07T21:14:46.803Z,69.98
2022-09-07T21:17:14.983Z,70.10
2022-09-07T21:19:44.491Z,70.49
2022-09-07T21:22:14.505Z,69.65
2022-09-07T21:24:42.411Z,70.84
2022-09-07T21:27:10.350Z,70.45
2022-09-07T21:29:38.231Z,70.17
2022-09-07T21:32:06.797Z,70.40
2022-09-07T21:34:34.683Z,69.87
2022-09-07T21:37:05.955Z,70.43
2022-09-07T21:39:33.844Z,70.01
2022-09-07T21:42:01.766Z,70.25
2022-09-07T21:44:29.630Z,70.03
2022-09-07T21:46:57.621Z,70.29
2022-09-07T21:49:25.687Z,69.75
2022-09-07T21:51:53.575Z,69.50
2022-09-07T21:54:22.736Z,69.04
2022-09-07T21:56:54.230Z,69.32
2022-09-07T21:59:21.983Z,69.71
2022-09-07T22:01:49.949Z,69.30
2022-09-07T22:04:17.927Z,69.70
2022-09-07T22:06:45.753Z,69.82
2022-09-07T22:09:13.564Z,68.78
2022-09-07T22:11:45.879Z,68.99
2022-09-07T22:14:15.656Z,68.29
2022-09-07T22:16:43.600Z,67.94
2022-09-07T22:19:23.195Z,68.37
2022-09-07T22:21:51.842Z,68.10
2022-09-07T22:24:19.598Z,67.77
2022-09-07T22:26:48.950Z,68.32
2022-09-07T22:29:16.714Z,68.07
2022-09-07T22:31:44.608Z,67.90
2022-09-07T22:34:12.460Z,68.23
2022-09-07T22:36:42.431Z,67.78
2022-09-07T22:39:13.139Z,67.77
2022-09-07T22:41:41.856Z,68.69
2022-09-07T22:44:15.126Z,68.16
2022-09-07T22:46:44.653Z,68.75
2022-09-07T22:49:13.341Z,67.88
2022-09-07T22:51:41.194Z,67.58
2022-09-07T22:54:09.061Z,67.69
2022-09-07T22:56:38.293Z,67.97
2022-09-07T22:59:08.414Z,68.42
2022-09-07T23:01:38.107Z,68.14
2022-09-07T23:04:06.834Z,68.37
2022-09-07T23:06:36.579Z,68.72
2022-09-07T23:09:06.711Z,67.99
2022-09-07T23:11:34.785Z,68.57
2022-09-07T23:14:04.915Z,68.91
2022-09-07T23:16:32.894Z,69.18
2022-09-07T23:19:02.133Z,69.84
2022-09-07T23:21:30.264Z,70.08
2022-09-07T23:23:59.644Z,69.67
2022-09-07T23:26:29.926Z,69.42
2022-09-07T23:28:59.526Z,69.00
2022-09-07T23:31:28.840Z,69.72
2022-09-07T23:33:57.405Z,68.83
2022-09-07T23:36:27.565Z,68.55
2022-09-07T23:38:56.212Z,69.01
2022-09-07T23:41:25.266Z,68.95
2022-09-07T23:43:53.757Z,68.55
2022-09-07T23:46:22.482Z,68.18
2022-09-07T23:48:50.918Z,68.25
2022-09-07T23:51:23.849Z,68.14
2022-09-07T23:53:53.842Z,68.17
2022-09-07T23:56:24.159Z,68.66
2022-09-07T23:58:51.932Z,67.89
